createdAt,value
2017-06-28T00:00:56.773Z,0
2017-06-28T00:02:09.590Z,0
2017-06-28T00:03:21.828Z,0
2017-06-28T00:04:34.075Z,0
2017-06-28T00:05:46.608Z,0
2017-06-28T00:06:59.178Z,0
2017-06-28T00:08:11.421Z,0
2017-06-28T00:09:23.946Z,0
2017-06-28T00:10:36.501Z,0
2017-06-28T00:11:49.073Z,0
2017-06-28T00:13:01.333Z,0
2017-06-28T00:14:13.567Z,0
2017-06-28T00:15:26.101Z,0
2017-06-28T00:16:38.667Z,0
2017-06-28T00:17:51.216Z,0
2017-06-28T00:19:03.500Z,0
2017-06-28T00:20:16.049Z,0
2017-06-28T00:21:27.981Z,0
2017-06-28T00:22:40.525Z,0
2017-06-28T00:23:53.069Z,0
2017-06-28T00:25:05.330Z,0
2017-06-28T00:26:17.559Z,0
2017-06-28T00:27:29.825Z,0
2017-06-28T00:28:42.076Z,0
2017-06-28T00:29:54.636Z,0
2017-06-28T00:31:07.189Z,0
2017-06-28T00:32:19.739Z,0
2017-06-28T00:33:31.981Z,0
2017-06-28T00:34:44.223Z,0
2017-06-28T00:35:56.777Z,0
2017-06-28T00:37:09.328Z,0
2017-06-28T00:38:21.883Z,0
2017-06-28T00:39:34.735Z,0
2017-06-28T00:40:46.981Z,0
2017-06-28T00:41:59.536Z,0
2017-06-28T00:43:12.099Z,0
2017-06-28T00:44:24.661Z,0
2017-06-28T00:45:37.236Z,0
2017-06-28T00:46:49.781Z,0
2017-06-28T00:48:02.040Z,0
2017-06-28T00:49:14.662Z,0
2017-06-28T00:50:26.903Z,0
2017-06-28T00:51:39.466Z,0
2017-06-28T00:52:51.724Z,0
2017-06-28T00:54:03.979Z,0
2017-06-28T00:55:16.212Z,0
2017-06-28T00:56:28.735Z,0
2017-06-28T00:57:41.295Z,0
2017-06-28T00:58:53.827Z,0
2017-06-28T01:00:06.086Z,0
2017-06-28T01:01:18.303Z,0
2017-06-28T01:02:30.862Z,0
2017-06-28T01:03:43.411Z,0
2017-06-28T01:04:55.980Z,0
2017-06-28T01:06:08.538Z,0
2017-06-28T01:07:20.774Z,0
2017-06-28T01:08:33.341Z,0
2017-06-28T01:09:45.867Z,0
2017-06-28T01:10:58.407Z,0
2017-06-28T01:12:10.972Z,0
2017-06-28T01:13:22.896Z,0
2017-06-28T01:14:35.459Z,0
2017-06-28T01:15:48.005Z,0
2017-06-28T01:17:00.283Z,0
2017-06-28T01:18:12.838Z,0
2017-06-28T01:19:25.397Z,0
2017-06-28T01:20:37.946Z,0
2017-06-28T01:21:50.206Z,0
2017-06-28T01:23:03.034Z,0
2017-06-28T01:24:15.598Z,0
2017-06-28T01:25:28.167Z,0
2017-06-28T01:26:40.743Z,0
2017-06-28T01:27:53.005Z,0
2017-06-28T01:29:05.275Z,0
2017-06-28T01:30:17.814Z,0
2017-06-28T01:31:30.080Z,0
2017-06-28T01:32:42.323Z,0
2017-06-28T01:33:54.581Z,0
2017-06-28T01:35:07.127Z,0
2017-06-28T01:36:19.636Z,0
2017-06-28T01:37:31.884Z,0
2017-06-28T01:38:44.142Z,0
2017-06-28T01:39:56.388Z,0
2017-06-28T01:41:08.955Z,0
2017-06-28T01:42:21.516Z,0
2017-06-28T01:43:34.094Z,0
2017-06-28T01:44:46.649Z,0
2017-06-28T01:45:59.191Z,0
2017-06-28T01:47:11.410Z,0
2017-06-28T01:48:23.974Z,0
2017-06-28T01:49:36.520Z,0
2017-06-28T01:50:49.093Z,0
2017-06-28T01:52:01.650Z,0
2017-06-28T01:53:14.211Z,0
2017-06-28T01:54:26.153Z,0
2017-06-28T01:55:38.725Z,0
2017-06-28T01:56:51.245Z,4
2017-06-28T01:58:03.776Z,4
2017-06-28T01:59:16.318Z,4
2017-06-28T02:00:28.561Z,4
2017-06-28T02:01:41.128Z,0
2017-06-28T02:02:53.356Z,4
2017-06-28T02:04:05.625Z,4
2017-06-28T02:05:17.874Z,4
2017-06-28T02:06:30.438Z,8
2017-06-28T02:07:42.971Z,4
2017-06-28T02:08:55.539Z,8
2017-06-28T02:10:07.786Z,4
2017-06-28T02:11:20.354Z,8
2017-06-28T02:12:32.898Z,8
2017-06-28T02:13:45.445Z,12
2017-06-28T02:14:57.691Z,12
2017-06-28T02:16:10.226Z,16
2017-06-28T02:17:22.164Z,16
2017-06-28T02:18:34.726Z,16
2017-06-28T02:19:47.275Z,20
2017-06-28T02:20:59.521Z,28
2017-06-28T02:22:12.071Z,32
2017-06-28T02:23:24.630Z,36
2017-06-28T02:24:37.156Z,36
2017-06-28T02:25:49.418Z,48
2017-06-28T02:27:01.993Z,52
2017-06-28T02:28:14.525Z,56
2017-06-28T02:29:26.759Z,64
2017-06-28T02:30:39.331Z,72
2017-06-28T02:31:51.905Z,80
2017-06-28T02:33:04.157Z,92
2017-06-28T02:34:16.747Z,104
2017-06-28T02:35:29.271Z,116
2017-06-28T02:36:41.514Z,128
2017-06-28T02:37:53.756Z,136
2017-06-28T02:39:06.310Z,148
2017-06-28T02:40:18.884Z,168
2017-06-28T02:41:31.451Z,188
2017-06-28T02:42:44.044Z,204
2017-06-28T02:43:56.572Z,224
2017-06-28T02:45:09.132Z,244
2017-06-28T02:46:21.688Z,268
2017-06-28T02:47:34.252Z,288
2017-06-28T02:48:46.805Z,316
2017-06-28T02:49:59.376Z,340
2017-06-28T02:51:11.943Z,372
2017-06-28T02:52:24.494Z,404
2017-06-28T02:53:37.040Z,444
2017-06-28T02:54:49.603Z,492
2017-06-28T02:56:01.865Z,544
2017-06-28T02:57:14.411Z,592
2017-06-28T02:58:26.941Z,644
2017-06-28T02:59:39.543Z,692
2017-06-28T03:00:52.327Z,736
2017-06-28T03:02:04.574Z,784
2017-06-28T03:03:16.532Z,836
2017-06-28T03:04:29.098Z,888
2017-06-28T03:05:41.643Z,928
2017-06-28T03:06:53.904Z,972
2017-06-28T03:08:06.460Z,1032
2017-06-28T03:09:18.995Z,1088
2017-06-28T03:10:31.545Z,1144
2017-06-28T03:11:44.095Z,1224
2017-06-28T03:12:56.658Z,1304
2017-06-28T03:14:09.218Z,1368
2017-06-28T03:15:21.766Z,1408
2017-06-28T03:16:34.303Z,1396
2017-06-28T03:17:46.878Z,1324
2017-06-28T03:18:58.817Z,1248
2017-06-28T03:20:11.079Z,1200
2017-06-28T03:21:23.616Z,1176
2017-06-28T03:22:36.486Z,1168
2017-06-28T03:23:48.733Z,1176
2017-06-28T03:25:01.285Z,1204
2017-06-28T03:26:13.826Z,1248
2017-06-28T03:27:26.088Z,1260
2017-06-28T03:28:38.338Z,1292
2017-06-28T03:29:50.866Z,1344
2017-06-28T03:31:03.133Z,1376
2017-06-28T03:32:15.333Z,1408
2017-06-28T03:33:27.579Z,1448
2017-06-28T03:34:40.137Z,1496
2017-06-28T03:35:52.684Z,1556
2017-06-28T03:37:05.241Z,1640
2017-06-28T03:38:17.787Z,1732
2017-06-28T03:39:30.625Z,1808
2017-06-28T03:40:43.177Z,1880
2017-06-28T03:41:55.727Z,1916
2017-06-28T03:43:08.273Z,1924
2017-06-28T03:44:21.084Z,1936
2017-06-28T03:45:33.625Z,1984
2017-06-28T03:46:46.160Z,2084
2017-06-28T03:47:58.697Z,2208
2017-06-28T03:49:11.248Z,2372
2017-06-28T03:50:23.747Z,2556
2017-06-28T03:51:36.307Z,2760
2017-06-28T03:52:48.869Z,2956
2017-06-28T03:54:01.430Z,3128
2017-06-28T03:55:13.378Z,3308
2017-06-28T03:56:25.922Z,3492
2017-06-28T03:57:38.468Z,3664
2017-06-28T03:58:50.998Z,3816
2017-06-28T04:00:03.552Z,3944
2017-06-28T04:01:16.104Z,4080
2017-06-28T04:02:28.655Z,4224
2017-06-28T04:03:41.197Z,4284
2017-06-28T04:04:53.719Z,4336
2017-06-28T04:06:06.254Z,4344
2017-06-28T04:07:18.789Z,4232
2017-06-28T04:08:31.032Z,4012
2017-06-28T04:09:43.553Z,3680
2017-06-28T04:10:55.796Z,3280
2017-06-28T04:12:08.365Z,2968
2017-06-28T04:13:20.615Z,2820
2017-06-28T04:14:33.161Z,2784
2017-06-28T04:15:45.695Z,2828
2017-06-28T04:16:58.226Z,2960
2017-06-28T04:18:10.749Z,3112
2017-06-28T04:19:23.272Z,3248
2017-06-28T04:20:35.540Z,3352
2017-06-28T04:21:48.104Z,3476
2017-06-28T04:23:00.358Z,3680
2017-06-28T04:24:12.606Z,3900
2017-06-28T04:25:25.173Z,4048
2017-06-28T04:26:36.798Z,4116
2017-06-28T04:27:49.388Z,4188
2017-06-28T04:29:01.629Z,4272
2017-06-28T04:30:13.886Z,4356
2017-06-28T04:31:26.154Z,4496
2017-06-28T04:32:38.718Z,4604
2017-06-28T04:33:50.960Z,4680
2017-06-28T04:35:03.487Z,4656
2017-06-28T04:36:15.766Z,4640
2017-06-28T04:37:27.730Z,4688
2017-06-28T04:38:40.298Z,4764
2017-06-28T04:39:52.554Z,4796
2017-06-28T04:41:05.124Z,4848
2017-06-28T04:42:17.709Z,5104
2017-06-28T04:43:30.287Z,5404
2017-06-28T04:44:42.535Z,5640
2017-06-28T04:45:55.063Z,5604
2017-06-28T04:47:07.614Z,5064
2017-06-28T04:48:20.151Z,4692
2017-06-28T04:49:32.738Z,4628
2017-06-28T04:50:45.303Z,4840
2017-06-28T04:51:57.838Z,4972
2017-06-28T04:53:10.398Z,5084
2017-06-28T04:54:22.977Z,5036
2017-06-28T04:55:35.523Z,5000
2017-06-28T04:56:48.048Z,4944
2017-06-28T04:58:00.632Z,4980
2017-06-28T04:59:13.156Z,5264
2017-06-28T05:00:26.034Z,5712
2017-06-28T05:01:38.277Z,5892
2017-06-28T05:02:50.802Z,5928
2017-06-28T05:04:03.368Z,6072
2017-06-28T05:05:15.927Z,5948
2017-06-28T05:06:28.178Z,5832
2017-06-28T05:07:40.710Z,5844
2017-06-28T05:08:53.252Z,7004
2017-06-28T05:10:05.522Z,9028
2017-06-28T05:11:18.103Z,15148
2017-06-28T05:12:30.661Z,10960
2017-06-28T05:13:42.936Z,12040
2017-06-28T05:14:55.487Z,13808
2017-06-28T05:16:08.051Z,12028
2017-06-28T05:17:20.616Z,12220
2017-06-28T05:18:32.571Z,16096
2017-06-28T05:19:45.117Z,19616
2017-06-28T05:20:57.687Z,14324
2017-06-28T05:22:10.531Z,19712
2017-06-28T05:23:23.080Z,21696
2017-06-28T05:24:35.625Z,18848
2017-06-28T05:25:48.175Z,16184
2017-06-28T05:27:00.760Z,12148
2017-06-28T05:28:13.291Z,13292
2017-06-28T05:29:25.533Z,16996
2017-06-28T05:30:37.795Z,14348
2017-06-28T05:31:50.347Z,11880
2017-06-28T05:33:02.596Z,10668
2017-06-28T05:34:15.141Z,9168
2017-06-28T05:35:27.376Z,9704
2017-06-28T05:36:39.597Z,9324
2017-06-28T05:37:52.158Z,8776
2017-06-28T05:39:04.725Z,9328
2017-06-28T05:40:17.276Z,8448
2017-06-28T05:41:29.815Z,9884
2017-06-28T05:42:42.066Z,18752
2017-06-28T05:43:54.911Z,10940
2017-06-28T05:45:07.160Z,8012
2017-06-28T05:46:19.696Z,7976
2017-06-28T05:47:32.222Z,7596
2017-06-28T05:48:44.469Z,7532
2017-06-28T05:49:57.021Z,7656
2017-06-28T05:51:09.276Z,7664
2017-06-28T05:52:21.510Z,7624
2017-06-28T05:53:33.776Z,9480
2017-06-28T05:54:46.299Z,10720
2017-06-28T05:55:58.846Z,9052
2017-06-28T05:57:11.390Z,7796
2017-06-28T05:58:23.977Z,7824
2017-06-28T05:59:36.509Z,7856
2017-06-28T06:00:49.051Z,9088
2017-06-28T06:02:01.614Z,9680
2017-06-28T06:03:13.890Z,9452
2017-06-28T06:04:26.434Z,8520
2017-06-28T06:05:39.239Z,8992
2017-06-28T06:06:51.796Z,10388
2017-06-28T06:08:04.035Z,9948
2017-06-28T06:09:16.572Z,9656
2017-06-28T06:10:28.832Z,17404
2017-06-28T06:11:41.341Z,19136
2017-06-28T06:12:53.906Z,16060
2017-06-28T06:14:06.461Z,21696
2017-06-28T06:15:18.723Z,14852
2017-06-28T06:16:31.293Z,12696
2017-06-28T06:17:43.850Z,10684
2017-06-28T06:18:56.432Z,10912
2017-06-28T06:20:08.978Z,13912
2017-06-28T06:21:21.510Z,25088
2017-06-28T06:22:34.057Z,48256
2017-06-28T06:23:45.997Z,47136
2017-06-28T06:24:58.240Z,62848
2017-06-28T06:26:10.794Z,61600
2017-06-28T06:27:23.362Z,61088
2017-06-28T06:28:35.608Z,58016
2017-06-28T06:29:47.875Z,54784
2017-06-28T06:31:00.420Z,42432
2017-06-28T06:32:12.972Z,38112
2017-06-28T06:33:25.534Z,55616
2017-06-28T06:34:38.087Z,50208
2017-06-28T06:35:50.605Z,55264
2017-06-28T06:37:02.869Z,45024
2017-06-28T06:38:15.407Z,44576
2017-06-28T06:39:27.963Z,56608
2017-06-28T06:40:40.217Z,56384
2017-06-28T06:41:52.463Z,53312
2017-06-28T06:43:05.007Z,57504
2017-06-28T06:44:17.276Z,57984
2017-06-28T06:45:29.842Z,54560
2017-06-28T06:46:41.795Z,50496
2017-06-28T06:47:54.086Z,39200
2017-06-28T06:49:06.640Z,36480
2017-06-28T06:50:18.925Z,39136
2017-06-28T06:51:31.479Z,39872
2017-06-28T06:52:44.030Z,37664
2017-06-28T06:53:56.571Z,39904
2017-06-28T06:55:08.817Z,39008
2017-06-28T06:56:21.384Z,43552
2017-06-28T06:57:33.953Z,45760
2017-06-28T06:58:46.505Z,47232
2017-06-28T06:59:59.069Z,57152
2017-06-28T07:01:11.647Z,59232
2017-06-28T07:02:23.910Z,57984
2017-06-28T07:03:36.466Z,60640
2017-06-28T07:04:49.041Z,58944
2017-06-28T07:06:01.606Z,54560
2017-06-28T07:07:13.879Z,53024
2017-06-28T07:08:26.139Z,51968
2017-06-28T07:09:38.711Z,50624
2017-06-28T07:10:51.286Z,53184
2017-06-28T07:12:03.880Z,57696
2017-06-28T07:13:16.157Z,61600
2017-06-28T07:14:28.404Z,62624
2017-06-28T07:15:40.973Z,67808
2017-06-28T07:16:52.919Z,69504
2017-06-28T07:18:05.161Z,67648
2017-06-28T07:19:17.431Z,68960
2017-06-28T07:20:30.014Z,67200
2017-06-28T07:21:42.281Z,67936
2017-06-28T07:22:54.524Z,70656
2017-06-28T07:24:07.069Z,68672
2017-06-28T07:25:19.615Z,66176
2017-06-28T07:26:31.891Z,66336
2017-06-28T07:27:44.486Z,66528
2017-06-28T07:28:56.762Z,65088
2017-06-28T07:30:08.749Z,63680
2017-06-28T07:31:21.012Z,64576
2017-06-28T07:32:33.565Z,65120
2017-06-28T07:33:45.821Z,64224
2017-06-28T07:34:58.362Z,67552
2017-06-28T07:36:10.975Z,69280
2017-06-28T07:37:23.237Z,65920
2017-06-28T07:38:35.538Z,67296
2017-06-28T07:39:47.795Z,56704
2017-06-28T07:41:00.338Z,60320
2017-06-28T07:42:12.607Z,58944
2017-06-28T07:43:24.879Z,44640
2017-06-28T07:44:37.456Z,40768
2017-06-28T07:45:50.047Z,55808
2017-06-28T07:47:02.338Z,56032
2017-06-28T07:48:14.591Z,63040
2017-06-28T07:49:26.859Z,68736
2017-06-28T07:50:39.425Z,72160
2017-06-28T07:51:52.006Z,74688
2017-06-28T07:53:04.271Z,72224
2017-06-28T07:54:16.555Z,70368
2017-06-28T07:55:28.488Z,55104
2017-06-28T07:56:41.062Z,63616
2017-06-28T07:57:53.628Z,73056
2017-06-28T07:59:05.597Z,77856
2017-06-28T08:00:17.853Z,78208
2017-06-28T08:01:30.421Z,79616
2017-06-28T08:02:42.391Z,77536
2017-06-28T08:03:54.677Z,82688
2017-06-28T08:05:06.960Z,87360
2017-06-28T08:06:19.579Z,83104
2017-06-28T08:07:31.848Z,81536
2017-06-28T08:08:44.418Z,80352
2017-06-28T08:09:56.691Z,79136
2017-06-28T08:11:09.281Z,73408
2017-06-28T08:12:21.545Z,81088
2017-06-28T08:13:34.115Z,82592
2017-06-28T08:14:46.431Z,83232
2017-06-28T08:15:58.719Z,86240
2017-06-28T08:17:10.690Z,84960
2017-06-28T08:18:22.952Z,85568
2017-06-28T08:19:35.212Z,82432
2017-06-28T08:20:47.783Z,80672
2017-06-28T08:22:00.070Z,75648
2017-06-28T08:23:12.370Z,80000
2017-06-28T08:24:24.640Z,83200
2017-06-28T08:25:37.207Z,86528
2017-06-28T08:26:49.185Z,89504
2017-06-28T08:28:01.482Z,89472
2017-06-28T08:29:13.763Z,89920
2017-06-28T08:30:26.034Z,88800
2017-06-28T08:31:38.295Z,88480
2017-06-28T08:32:50.865Z,90240
2017-06-28T08:34:03.146Z,87488
2017-06-28T08:35:15.478Z,84672
2017-06-28T08:36:27.729Z,83616
2017-06-28T08:37:40.612Z,84032
2017-06-28T08:38:53.193Z,82272
2017-06-28T08:40:05.435Z,83744
2017-06-28T08:41:18.008Z,87424
2017-06-28T08:42:30.577Z,86464
2017-06-28T08:43:43.146Z,87456
2017-06-28T08:44:55.739Z,91808
2017-06-28T08:46:07.692Z,90656
2017-06-28T08:47:20.268Z,91584
2017-06-28T08:48:32.863Z,91936
2017-06-28T08:49:45.461Z,91552
2017-06-28T08:50:57.777Z,88288
2017-06-28T08:52:10.360Z,88768
2017-06-28T08:53:22.638Z,86400
2017-06-28T08:54:34.916Z,88288
2017-06-28T08:55:47.479Z,89536
2017-06-28T08:56:59.747Z,87264
2017-06-28T08:58:12.343Z,87840
2017-06-28T08:59:24.630Z,87424
2017-06-28T09:00:36.914Z,63648
2017-06-28T09:01:49.485Z,69568
2017-06-28T09:03:01.760Z,87328
2017-06-28T09:04:14.330Z,89472
2017-06-28T09:05:26.593Z,90016
2017-06-28T09:06:39.171Z,89152
2017-06-28T09:07:51.443Z,87712
2017-06-28T09:09:03.691Z,87424
2017-06-28T09:10:16.240Z,86944
2017-06-28T09:11:28.802Z,83584
2017-06-28T09:12:41.376Z,84672
2017-06-28T09:13:53.928Z,87424
2017-06-28T09:15:05.919Z,87136
2017-06-28T09:16:18.183Z,87264
2017-06-28T09:17:30.156Z,87168
2017-06-28T09:18:42.720Z,70592
2017-06-28T09:19:55.328Z,82528
2017-06-28T09:21:07.875Z,83200
2017-06-28T09:22:20.145Z,79392
2017-06-28T09:23:32.707Z,73920
2017-06-28T09:24:45.286Z,67392
2017-06-28T09:25:57.861Z,60448
2017-06-28T09:27:10.157Z,75936
2017-06-28T09:28:22.751Z,78080
2017-06-28T09:29:35.044Z,81536
2017-06-28T09:30:47.646Z,81024
2017-06-28T09:32:00.235Z,79648
2017-06-28T09:33:12.207Z,79456
2017-06-28T09:34:24.771Z,80320
2017-06-28T09:35:37.365Z,79008
2017-06-28T09:36:49.937Z,74496
2017-06-28T09:38:02.215Z,75936
2017-06-28T09:39:14.163Z,18416
2017-06-28T09:40:26.733Z,79040
2017-06-28T09:41:39.008Z,19392
2017-06-28T09:42:51.317Z,50496
2017-06-28T09:44:03.891Z,73472
2017-06-28T09:45:16.483Z,78784
2017-06-28T09:46:28.430Z,80384
2017-06-28T09:47:40.686Z,81888
2017-06-28T09:48:53.254Z,83072
2017-06-28T09:50:05.239Z,81248
2017-06-28T09:51:17.499Z,82208
2017-06-28T09:52:29.767Z,81728
2017-06-28T09:53:42.388Z,82560
2017-06-28T09:54:55.000Z,80608
2017-06-28T09:56:06.955Z,81504
2017-06-28T09:57:19.528Z,75712
2017-06-28T09:58:31.817Z,28352
2017-06-28T09:59:44.367Z,83296
2017-06-28T10:00:56.636Z,82368
2017-06-28T10:02:09.256Z,79840
2017-06-28T10:03:21.851Z,77408
2017-06-28T10:04:34.130Z,71776
2017-06-28T10:05:46.698Z,83552
2017-06-28T10:06:58.683Z,84672
2017-06-28T10:08:11.268Z,88352
2017-06-28T10:09:23.862Z,94272
2017-06-28T10:10:35.851Z,73280
2017-06-28T10:11:48.126Z,62336
2017-06-28T10:13:00.075Z,65952
2017-06-28T10:14:12.348Z,40576
2017-06-28T10:15:24.935Z,48960
2017-06-28T10:16:37.524Z,49568
2017-06-28T10:17:49.828Z,55552
2017-06-28T10:19:02.436Z,48640
2017-06-28T10:20:15.023Z,52928
2017-06-28T10:21:27.542Z,62656
2017-06-28T10:22:39.835Z,47584
2017-06-28T10:23:52.453Z,67552
2017-06-28T10:25:05.024Z,60480
2017-06-28T10:26:17.278Z,50656
2017-06-28T10:27:29.874Z,77408
2017-06-28T10:28:42.473Z,91392
2017-06-28T10:29:55.047Z,75680
2017-06-28T10:31:07.636Z,30944
2017-06-28T10:32:19.321Z,92672
2017-06-28T10:33:31.000Z,93024
2017-06-28T10:34:43.545Z,45600
2017-06-28T10:35:56.120Z,76704
2017-06-28T10:37:08.690Z,35040
2017-06-28T10:38:21.286Z,95232
2017-06-28T10:39:32.637Z,28832
2017-06-28T10:40:45.248Z,54432
2017-06-28T10:41:56.941Z,94240
2017-06-28T10:43:09.512Z,93952
2017-06-28T10:44:22.084Z,86816
2017-06-28T10:45:34.617Z,31392
2017-06-28T10:46:46.947Z,30848
2017-06-28T10:47:59.505Z,88416
2017-06-28T10:49:12.069Z,21536
2017-06-28T10:50:24.330Z,22976
2017-06-28T10:51:36.912Z,94464
2017-06-28T10:52:49.187Z,100672
2017-06-28T10:54:01.454Z,97056
2017-06-28T10:55:14.043Z,89504
2017-06-28T10:56:26.305Z,83040
2017-06-28T10:57:38.574Z,87808
2017-06-28T10:58:51.464Z,86816
2017-06-28T11:00:03.705Z,35648
2017-06-28T11:01:16.259Z,52416
2017-06-28T11:02:28.533Z,83904
2017-06-28T11:03:40.515Z,86752
2017-06-28T11:04:53.072Z,85728
2017-06-28T11:06:05.617Z,88736
2017-06-28T11:07:17.889Z,87168
2017-06-28T11:08:30.484Z,85248
2017-06-28T11:09:42.785Z,83424
2017-06-28T11:10:55.329Z,24096
2017-06-28T11:12:07.900Z,55488
2017-06-28T11:13:20.193Z,74528
2017-06-28T11:14:32.788Z,72128
2017-06-28T11:15:45.381Z,80448
2017-06-28T11:16:57.660Z,78848
2017-06-28T11:18:10.228Z,78752
2017-06-28T11:19:22.508Z,25248
2017-06-28T11:20:35.102Z,42144
2017-06-28T11:21:47.731Z,74848
2017-06-28T11:22:59.965Z,28832
2017-06-28T11:24:12.507Z,28864
2017-06-28T11:25:25.056Z,71232
2017-06-28T11:26:37.328Z,43104
2017-06-28T11:27:49.597Z,22336
2017-06-28T11:29:01.883Z,20160
2017-06-28T11:30:14.179Z,22080
2017-06-28T11:31:26.981Z,19904
2017-06-28T11:32:39.556Z,15888
2017-06-28T11:33:51.827Z,18112
2017-06-28T11:35:04.097Z,77152
2017-06-28T11:36:16.665Z,80128
2017-06-28T11:37:29.233Z,80544
2017-06-28T11:38:41.810Z,79712
2017-06-28T11:39:54.123Z,85184
2017-06-28T11:41:06.687Z,87648
2017-06-28T11:42:19.545Z,90240
2017-06-28T11:43:32.138Z,28256
2017-06-28T11:44:44.687Z,54848
2017-06-28T11:45:57.262Z,24576
2017-06-28T11:47:09.874Z,86720
2017-06-28T11:48:22.423Z,34528
2017-06-28T11:49:35.041Z,59136
2017-06-28T11:50:47.620Z,46976
2017-06-28T11:52:00.238Z,88640
2017-06-28T11:53:12.812Z,83424
2017-06-28T11:54:25.421Z,72320
2017-06-28T11:55:37.675Z,41920
2017-06-28T11:56:50.267Z,63936
2017-06-28T11:58:02.541Z,22400
2017-06-28T11:59:14.838Z,22176
2017-06-28T12:00:27.458Z,58336
2017-06-28T12:01:39.742Z,55680
2017-06-28T12:02:52.305Z,89248
2017-06-28T12:04:04.881Z,84800
2017-06-28T12:05:17.459Z,42816
2017-06-28T12:06:30.030Z,26144
2017-06-28T12:07:42.283Z,80736
2017-06-28T12:08:54.542Z,27328
2017-06-28T12:10:06.801Z,72736
2017-06-28T12:11:19.349Z,73344
2017-06-28T12:12:31.618Z,43584
2017-06-28T12:13:43.864Z,29664
2017-06-28T12:14:55.810Z,41312
2017-06-28T12:16:08.360Z,44480
2017-06-28T12:17:20.653Z,74464
2017-06-28T12:18:32.924Z,33248
2017-06-28T12:19:45.214Z,68352
2017-06-28T12:20:57.769Z,22624
2017-06-28T12:22:10.038Z,66816
2017-06-28T12:23:22.622Z,26368
2017-06-28T12:24:34.902Z,26816
2017-06-28T12:25:47.481Z,65920
2017-06-28T12:26:59.453Z,62496
2017-06-28T12:28:11.713Z,22624
2017-06-28T12:29:24.276Z,19936
2017-06-28T12:30:36.831Z,20800
2017-06-28T12:31:49.148Z,26912
2017-06-28T12:33:01.110Z,47168
2017-06-28T12:34:13.072Z,32384
2017-06-28T12:35:25.654Z,55136
2017-06-28T12:36:37.924Z,58208
2017-06-28T12:37:50.485Z,60992
2017-06-28T12:39:02.778Z,61184
2017-06-28T12:40:15.365Z,58400
2017-06-28T12:41:27.624Z,57024
2017-06-28T12:42:40.192Z,36992
2017-06-28T12:43:52.829Z,38048
2017-06-28T12:45:05.405Z,38048
2017-06-28T12:46:17.678Z,49216
2017-06-28T12:47:30.252Z,43904
2017-06-28T12:48:42.547Z,49120
2017-06-28T12:49:54.829Z,52416
2017-06-28T12:51:07.617Z,50304
2017-06-28T12:52:19.911Z,47744
2017-06-28T12:53:32.179Z,41152
2017-06-28T12:54:44.754Z,16240
2017-06-28T12:55:57.363Z,15488
2017-06-28T12:57:09.687Z,16440
2017-06-28T12:58:22.533Z,20608
2017-06-28T12:59:35.133Z,41632
2017-06-28T13:00:47.707Z,24672
2017-06-28T13:01:59.674Z,22592
2017-06-28T13:03:12.242Z,19680
2017-06-28T13:04:24.810Z,18208
2017-06-28T13:05:37.055Z,18272
2017-06-28T13:06:49.609Z,20384
2017-06-28T13:08:01.901Z,39328
2017-06-28T13:09:13.856Z,25920
2017-06-28T13:10:26.421Z,25184
2017-06-28T13:11:38.993Z,22720
2017-06-28T13:12:51.263Z,29536
2017-06-28T13:14:03.809Z,40992
2017-06-28T13:15:15.782Z,33216
2017-06-28T13:16:28.356Z,23744
2017-06-28T13:17:40.021Z,19904
2017-06-28T13:18:52.297Z,16308
2017-06-28T13:20:04.887Z,18112
2017-06-28T13:21:17.461Z,22592
2017-06-28T13:22:29.706Z,23296
2017-06-28T13:23:42.251Z,21792
2017-06-28T13:24:54.843Z,17472
2017-06-28T13:26:06.836Z,15808
2017-06-28T13:27:19.090Z,13884
2017-06-28T13:28:31.335Z,11724
2017-06-28T13:29:43.583Z,9860
2017-06-28T13:30:56.147Z,7476
2017-06-28T13:32:08.698Z,4988
2017-06-28T13:33:20.966Z,3488
2017-06-28T13:34:33.544Z,2568
2017-06-28T13:35:46.139Z,1944
2017-06-28T13:36:58.735Z,1668
2017-06-28T13:38:11.002Z,1956
2017-06-28T13:39:23.273Z,2600
2017-06-28T13:40:35.847Z,2968
2017-06-28T13:41:48.086Z,2920
2017-06-28T13:43:00.378Z,2636
2017-06-28T13:44:12.650Z,2260
2017-06-28T13:45:24.628Z,1812
2017-06-28T13:46:37.183Z,1388
2017-06-28T13:47:49.724Z,1168
2017-06-28T13:49:01.390Z,1044
2017-06-28T13:50:13.941Z,972
2017-06-28T13:51:26.496Z,1032
2017-06-28T13:52:39.028Z,1164
2017-06-28T13:53:51.301Z,1244
2017-06-28T13:55:03.266Z,1368
2017-06-28T13:56:15.532Z,1772
2017-06-28T13:59:09.885Z,3736
2017-06-28T14:00:22.173Z,3976
2017-06-28T14:01:34.428Z,3780
2017-06-28T14:02:46.974Z,3584
2017-06-28T14:03:59.516Z,3352
2017-06-28T14:05:11.800Z,3140
2017-06-28T14:06:24.339Z,2924
2017-06-28T14:07:36.878Z,2764
2017-06-28T14:08:49.148Z,2544
2017-06-28T14:10:01.713Z,2364
2017-06-28T14:11:13.947Z,2308
2017-06-28T14:12:26.494Z,2336
2017-06-28T14:13:39.058Z,2388
2017-06-28T14:14:51.620Z,2484
2017-06-28T14:16:04.177Z,2632
2017-06-28T14:17:16.721Z,2912
2017-06-28T14:18:29.269Z,3412
2017-06-28T14:19:41.561Z,4024
2017-06-28T14:20:54.108Z,4736
2017-06-28T14:22:06.658Z,5492
2017-06-28T14:23:18.976Z,6124
2017-06-28T14:24:31.267Z,6780
2017-06-28T14:25:43.795Z,7400
2017-06-28T14:26:56.390Z,7980
2017-06-28T14:28:08.336Z,8484
2017-06-28T14:29:20.580Z,8924
2017-06-28T14:30:32.529Z,9336
2017-06-28T14:31:45.101Z,9688
2017-06-28T14:32:57.389Z,9968
2017-06-28T14:34:09.936Z,10116
2017-06-28T14:35:22.185Z,10148
2017-06-28T14:36:34.436Z,10048
2017-06-28T14:37:46.989Z,9896
2017-06-28T14:38:58.973Z,9644
2017-06-28T14:40:10.918Z,9304
2017-06-28T14:41:23.484Z,8996
2017-06-28T14:42:36.038Z,8852
2017-06-28T14:43:48.602Z,8812
2017-06-28T14:45:01.151Z,8960
2017-06-28T14:46:12.811Z,9228
2017-06-28T14:47:25.064Z,9536
2017-06-28T14:48:37.331Z,9816
2017-06-28T14:49:49.888Z,10076
2017-06-28T14:51:02.431Z,10272
2017-06-28T14:52:15.008Z,10420
2017-06-28T14:53:27.277Z,10408
2017-06-28T14:54:39.819Z,10220
2017-06-28T14:55:52.389Z,10192
2017-06-28T14:57:04.336Z,10708
2017-06-28T14:58:16.884Z,11392
2017-06-28T14:59:29.153Z,11992
2017-06-28T15:00:41.419Z,12500
2017-06-28T15:01:53.965Z,12872
2017-06-28T15:03:06.218Z,13180
2017-06-28T15:04:18.762Z,13372
2017-06-28T15:05:31.306Z,13172
2017-06-28T15:06:43.872Z,12700
2017-06-28T15:07:56.402Z,12908
2017-06-28T15:09:08.991Z,14780
2017-06-28T15:10:21.575Z,17664
2017-06-28T15:11:34.138Z,19424
2017-06-28T15:12:46.709Z,19936
2017-06-28T15:13:59.285Z,19040
2017-06-28T15:15:11.866Z,16184
2017-06-28T15:16:23.822Z,12860
2017-06-28T15:17:36.380Z,10016
2017-06-28T15:18:48.340Z,8384
2017-06-28T15:20:00.611Z,7836
2017-06-28T15:21:13.179Z,8396
2017-06-28T15:22:24.821Z,9288
2017-06-28T15:23:37.376Z,9764
2017-06-28T15:24:49.641Z,9232
2017-06-28T15:26:01.587Z,8012
2017-06-28T15:27:13.884Z,7116
2017-06-28T15:28:25.535Z,6976
2017-06-28T15:29:38.134Z,6960
2017-06-28T15:30:50.742Z,6804
2017-06-28T15:32:03.299Z,7028
2017-06-28T15:33:15.567Z,7580
2017-06-28T15:34:28.135Z,8080
2017-06-28T15:35:40.705Z,8212
2017-06-28T15:36:53.254Z,8464
2017-06-28T15:38:05.834Z,9704
2017-06-28T15:39:18.368Z,11120
2017-06-28T15:40:30.618Z,11708
2017-06-28T15:41:43.180Z,11232
2017-06-28T15:42:55.726Z,10488
2017-06-28T15:44:08.289Z,10064
2017-06-28T15:45:20.825Z,10200
2017-06-28T15:46:33.087Z,11148
2017-06-28T15:47:45.339Z,12736
2017-06-28T15:48:57.585Z,13900
2017-06-28T15:50:10.155Z,14316
2017-06-28T15:51:22.697Z,14356
2017-06-28T15:52:34.664Z,14312
2017-06-28T15:53:46.907Z,14048
2017-06-28T15:54:59.181Z,13796
2017-06-28T15:56:11.456Z,13696
2017-06-28T15:57:24.002Z,13820
2017-06-28T15:58:36.565Z,13984
2017-06-28T15:59:49.132Z,14220
2017-06-28T16:01:01.395Z,14376
2017-06-28T16:02:13.956Z,14344
2017-06-28T16:03:26.211Z,14148
2017-06-28T16:04:38.757Z,13820